createdAt,value
2022-12-11T00:02:11.174Z,100703.28
2022-12-11T00:04:41.637Z,100702.25
2022-12-11T00:07:10.338Z,100706.56
2022-12-11T00:09:39.161Z,100708.31
2022-12-11T00:12:08.451Z,100697.91
2022-12-11T00:14:37.292Z,100699.38
2022-12-11T00:17:06.541Z,100703.53
2022-12-11T00:19:35.047Z,100704.38
2022-12-11T00:22:03.431Z,100700.56
2022-12-11T00:24:37.508Z,100709.28
2022-12-11T00:27:06.219Z,100700.56
2022-12-11T00:29:35.391Z,100695.50
2022-12-11T00:32:03.283Z,100700.19
2022-12-11T00:34:32.803Z,100703.41
2022-12-11T00:37:01.113Z,100698.00
2022-12-11T00:39:29.162Z,100694.00
2022-12-11T00:41:58.570Z,100692.78
2022-12-11T00:44:27.590Z,100686.28
2022-12-11T00:46:56.148Z,100686.78
2022-12-11T00:49:25.211Z,100684.03
2022-12-11T00:51:56.788Z,100687.53
2022-12-11T00:54:25.157Z,100692.38
2022-12-11T00:56:56.496Z,100691.66
2022-12-11T00:59:25.571Z,100682.97
2022-12-11T01:01:57.085Z,100677.16
2022-12-11T01:04:27.365Z,100683.47
2022-12-11T01:06:56.490Z,100677.94
2022-12-11T01:09:44.693Z,100680.94
2022-12-11T01:12:15.451Z,100680.28
2022-12-11T01:14:44.262Z,100677.56
2022-12-11T01:17:16.201Z,100669.88
2022-12-11T01:19:44.205Z,100665.47
2022-12-11T01:22:13.084Z,100666.72
2022-12-11T01:24:41.057Z,100669.72
2022-12-11T01:27:09.877Z,100658.31
2022-12-11T01:29:38.171Z,100658.50
2022-12-11T01:32:06.459Z,100662.28
2022-12-11T01:34:35.365Z,100648.59
2022-12-11T01:37:06.180Z,100652.22
2022-12-11T01:39:37.103Z,100646.44
2022-12-11T01:42:07.482Z,100645.28
2022-12-11T01:44:38.480Z,100648.47
2022-12-11T01:47:08.017Z,100653.34
2022-12-11T01:49:37.585Z,100652.81
2022-12-11T01:52:17.853Z,100640.69
2022-12-11T01:54:48.360Z,100641.28
2022-12-11T01:57:20.274Z,100645.97
2022-12-11T01:59:48.342Z,100648.09
2022-12-11T02:02:22.762Z,100642.13
2022-12-11T02:04:51.073Z,100652.03
2022-12-11T02:07:20.344Z,100651.88
2022-12-11T02:09:49.050Z,100657.91
2022-12-11T02:12:54.366Z,100654.91
2022-12-11T02:15:45.380Z,100657.66
2022-12-11T02:18:49.797Z,100647.97
2022-12-11T02:21:27.880Z,100654.44
2022-12-11T02:24:42.858Z,100645.59
2022-12-11T02:27:26.461Z,100656.22
2022-12-11T02:30:14.187Z,100649.16
2022-12-11T02:32:56.780Z,100643.84
2022-12-11T02:35:44.546Z,100656.16
2022-12-11T02:38:22.597Z,100645.16
2022-12-11T02:40:56.641Z,100650.94
2022-12-11T02:43:26.530Z,100654.47
2022-12-11T02:45:56.628Z,100654.00
2022-12-11T02:48:26.982Z,100645.78
2022-12-11T02:50:59.181Z,100643.03
2022-12-11T02:53:32.114Z,100643.38
2022-12-11T02:56:10.712Z,100646.72
2022-12-11T02:58:47.470Z,100645.63
2022-12-11T03:01:16.675Z,100644.31
2022-12-11T03:03:45.075Z,100649.69
2022-12-11T03:06:20.461Z,100647.00
2022-12-11T03:08:52.204Z,100646.91
2022-12-11T03:11:21.444Z,100644.50
2022-12-11T03:13:50.357Z,100641.00
2022-12-11T03:16:43.564Z,100637.00
2022-12-11T03:19:24.817Z,100630.13
2022-12-11T03:21:58.812Z,100647.75
2022-12-11T03:25:07.180Z,100634.59
2022-12-11T03:28:15.168Z,100646.28
2022-12-11T03:30:49.965Z,100633.56
2022-12-11T03:33:27.463Z,100636.34
2022-12-11T03:36:17.261Z,100636.72
2022-12-11T03:38:58.820Z,100635.69
2022-12-11T03:41:31.595Z,100630.78
2022-12-11T03:44:00.712Z,100628.94
2022-12-11T03:46:38.411Z,100621.59
2022-12-11T03:49:15.811Z,100611.78
2022-12-11T03:51:49.475Z,100605.38
2022-12-11T03:54:18.975Z,100613.25
2022-12-11T03:56:52.119Z,100619.53
2022-12-11T03:59:20.176Z,100613.63
2022-12-11T04:01:49.077Z,100623.19
2022-12-11T04:04:19.415Z,100627.72
2022-12-11T04:06:52.571Z,100634.84
2022-12-11T04:09:22.164Z,100638.19
2022-12-11T04:11:50.247Z,100634.19
2022-12-11T04:14:39.199Z,100630.44
2022-12-11T04:17:10.788Z,100638.75
2022-12-11T04:20:00.644Z,100625.13
2022-12-11T04:22:48.205Z,100625.41
2022-12-11T04:25:16.086Z,100619.28
2022-12-11T04:27:50.973Z,100617.03
2022-12-11T04:30:22.904Z,100611.41
2022-12-11T04:32:54.283Z,100609.81
2022-12-11T04:35:25.054Z,100615.19
2022-12-11T04:37:54.734Z,100600.19
2022-12-11T04:40:23.681Z,100591.56
2022-12-11T04:42:52.784Z,100594.88
2022-12-11T04:45:22.083Z,100598.50
2022-12-11T04:47:50.185Z,100601.94
2022-12-11T04:50:19.058Z,100599.06
2022-12-11T04:52:47.136Z,100599.06
2022-12-11T04:55:18.516Z,100605.00
2022-12-11T04:57:47.166Z,100606.47
2022-12-11T05:00:18.558Z,100606.66
2022-12-11T05:02:48.218Z,100606.22
2022-12-11T05:05:18.802Z,100598.59
2022-12-11T05:07:48.283Z,100600.06
2022-12-11T05:10:18.820Z,100592.38
2022-12-11T05:12:47.351Z,100595.16
2022-12-11T05:15:18.773Z,100597.38
2022-12-11T05:17:48.258Z,100596.13
2022-12-11T05:20:18.236Z,100586.81
2022-12-11T05:22:49.234Z,100594.69
2022-12-11T05:25:19.097Z,100597.22
2022-12-11T05:27:48.677Z,100608.16
2022-12-11T05:30:17.898Z,100608.91
2022-12-11T05:32:46.866Z,100622.72
2022-12-11T05:35:16.257Z,100619.66
2022-12-11T05:37:45.043Z,100630.97
2022-12-11T05:40:13.365Z,100623.38
2022-12-11T05:42:42.346Z,100622.53
2022-12-11T05:45:14.320Z,100619.00
2022-12-11T05:47:43.273Z,100616.31
2022-12-11T05:50:12.387Z,100623.09
2022-12-11T05:52:41.425Z,100624.75
2022-12-11T05:55:11.477Z,100623.38
2022-12-11T05:57:42.864Z,100619.66
2022-12-11T06:00:13.974Z,100625.97
2022-12-11T06:02:42.920Z,100635.31
2022-12-11T06:05:11.436Z,100634.50
2022-12-11T06:07:41.179Z,100636.81
2022-12-11T06:10:11.004Z,100626.50
2022-12-11T06:12:42.938Z,100621.69
2022-12-11T06:15:11.682Z,100617.22
2022-12-11T06:17:42.351Z,100615.97
2022-12-11T06:20:11.629Z,100618.00
2022-12-11T06:22:41.136Z,100626.72
2022-12-11T06:25:10.497Z,100627.63
2022-12-11T06:27:40.857Z,100623.63
2022-12-11T06:30:09.670Z,100633.84
2022-12-11T06:32:39.243Z,100631.16
2022-12-11T06:35:07.244Z,100637.25
2022-12-11T06:37:37.502Z,100640.59
2022-12-11T06:40:08.361Z,100636.88
2022-12-11T06:42:37.725Z,100630.22
2022-12-11T06:45:09.337Z,100629.84
2022-12-11T06:47:41.072Z,100630.84
2022-12-11T06:50:11.091Z,100629.41
2022-12-11T06:52:39.244Z,100626.31
2022-12-11T06:55:08.968Z,100625.69
2022-12-11T06:57:39.715Z,100625.41
2022-12-11T07:00:12.013Z,100619.75
2022-12-11T07:02:40.114Z,100619.09
2022-12-11T07:05:10.374Z,100623.75
2022-12-11T07:07:39.147Z,100619.38
2022-12-11T07:10:09.132Z,100631.97
2022-12-11T07:12:38.599Z,100624.25
2022-12-11T07:15:09.856Z,100629.63
2022-12-11T07:17:39.289Z,100611.41
2022-12-11T07:20:09.834Z,100612.59
2022-12-11T07:22:44.638Z,100589.78
2022-12-11T07:25:18.303Z,100594.84
2022-12-11T07:27:48.533Z,100576.22
2022-12-11T07:30:20.172Z,100582.72
2022-12-11T07:32:49.162Z,100573.00
2022-12-11T07:35:17.063Z,100582.19
2022-12-11T07:37:49.220Z,100582.72
2022-12-11T07:40:17.659Z,100578.09
2022-12-11T07:42:46.622Z,100596.47
2022-12-11T07:45:16.724Z,100570.59
2022-12-11T07:47:45.247Z,100587.47
2022-12-11T07:50:14.581Z,100600.25
2022-12-11T07:52:43.087Z,100584.97
2022-12-11T07:55:12.424Z,100585.97
2022-12-11T07:57:43.999Z,100576.44
2022-12-11T08:00:12.628Z,100596.94
2022-12-11T08:02:41.742Z,100576.81
2022-12-11T08:05:10.602Z,100570.84
2022-12-11T08:07:40.408Z,100589.78
2022-12-11T08:10:11.218Z,100588.66
2022-12-11T08:12:40.176Z,100592.78
2022-12-11T08:15:09.936Z,100581.44
2022-12-11T08:17:40.277Z,100576.63
2022-12-11T08:20:12.209Z,100576.16
2022-12-11T08:22:41.283Z,100576.81
2022-12-11T08:25:10.288Z,100577.06
2022-12-11T08:27:39.800Z,100586.44
2022-12-11T08:30:16.254Z,100578.66
2022-12-11T08:32:46.985Z,100578.56
2022-12-11T08:35:15.838Z,100587.19
2022-12-11T08:37:48.725Z,100591.16
2022-12-11T08:40:19.710Z,100593.09
2022-12-11T08:42:48.210Z,100585.41
2022-12-11T08:45:17.894Z,100597.81
2022-12-11T08:47:47.230Z,100585.81
2022-12-11T08:50:20.263Z,100581.22
2022-12-11T08:52:48.220Z,100574.31
2022-12-11T08:55:17.744Z,100579.38
2022-12-11T09:00:29.161Z,100581.03
2022-12-11T09:02:59.731Z,100573.41
2022-12-11T09:05:28.505Z,100566.75
2022-12-11T09:11:16.252Z,100563.78
2022-12-11T09:13:45.958Z,100559.56
2022-12-11T09:16:23.897Z,100560.84
2022-12-11T09:18:54.281Z,100551.59
2022-12-11T09:21:24.720Z,100551.09
2022-12-11T09:23:59.207Z,100550.75
2022-12-11T09:26:32.735Z,100540.81
2022-12-11T09:29:04.290Z,100543.19
2022-12-11T09:31:36.391Z,100535.09
2022-12-11T09:34:08.505Z,100542.88
2022-12-11T09:36:43.278Z,100543.44
2022-12-11T09:39:14.543Z,100533.13
2022-12-11T09:42:06.718Z,100521.03
2022-12-11T09:44:48.794Z,100513.91
2022-12-11T09:47:39.413Z,100511.50
2022-12-11T09:50:34.393Z,100513.53
2022-12-11T09:53:29.785Z,100501.09
2022-12-11T09:56:14.012Z,100505.91
2022-12-11T09:59:09.364Z,100499.75
2022-12-11T10:02:11.298Z,100502.91
2022-12-11T10:05:17.314Z,100495.56
2022-12-11T10:08:15.704Z,100498.25
2022-12-11T10:11:14.077Z,100495.22
2022-12-11T10:13:58.682Z,100496.69
2022-12-11T10:16:50.836Z,100495.31
2022-12-11T10:19:23.267Z,100480.81
2022-12-11T10:21:53.357Z,100478.81
2022-12-11T10:25:10.079Z,100487.53
2022-12-11T10:27:38.983Z,100472.16
2022-12-11T10:30:34.207Z,100468.84
2022-12-11T10:33:26.519Z,100466.34
2022-12-11T10:35:57.750Z,100462.53
2022-12-11T13:44:44.806Z,100336.25
2022-12-11T13:50:34.199Z,100335.59
2022-12-11T13:53:05.248Z,100331.47
2022-12-11T13:55:35.534Z,100326.38
2022-12-11T14:01:23.343Z,100336.00
2022-12-11T14:04:07.049Z,100344.31
2022-12-11T14:06:38.544Z,100332.25
2022-12-11T14:09:09.570Z,100320.03
2022-12-11T14:11:41.374Z,100336.41
2022-12-11T14:14:43.429Z,100319.91
2022-12-11T14:17:15.577Z,100338.09
2022-12-11T14:19:48.902Z,100328.94
2022-12-11T14:22:20.603Z,100326.50
2022-12-11T14:24:52.205Z,100333.31
2022-12-11T14:27:22.857Z,100330.81
2022-12-11T14:29:52.625Z,100327.50
2022-12-11T14:32:43.236Z,100315.72
2022-12-11T14:35:38.627Z,100321.50
2022-12-11T14:38:23.171Z,100308.03
2022-12-11T14:40:59.284Z,100311.97
2022-12-11T14:43:43.503Z,100308.53
2022-12-11T14:46:29.235Z,100300.75
2022-12-11T14:49:27.052Z,100305.13
2022-12-11T14:51:58.825Z,100305.34
2022-12-11T14:54:40.739Z,100299.78
2022-12-11T14:57:21.675Z,100306.13
2022-12-11T14:59:53.509Z,100309.66
2022-12-11T15:02:34.437Z,100305.75
2022-12-11T15:05:12.645Z,100311.97
2022-12-11T15:07:54.020Z,100308.06
2022-12-11T15:10:33.242Z,100314.25
2022-12-11T15:13:09.955Z,100314.59
2022-12-11T15:15:47.070Z,100306.91
2022-12-11T15:18:31.832Z,100299.97
2022-12-11T15:21:11.843Z,100303.72
2022-12-11T15:23:46.021Z,100301.63
2022-12-11T15:26:15.565Z,100295.19
2022-12-11T15:28:43.893Z,100299.47
2022-12-11T15:31:37.727Z,100301.78
2022-12-11T15:34:23.576Z,100295.13
2022-12-11T15:36:55.822Z,100293.00
2022-12-11T15:39:24.093Z,100299.97
2022-12-11T15:41:56.553Z,100302.56
2022-12-11T15:44:27.918Z,100285.00
2022-12-11T15:46:56.888Z,100286.81
2022-12-11T15:49:24.902Z,100294.78
2022-12-11T15:51:54.868Z,100285.78
2022-12-11T15:54:23.091Z,100290.88
2022-12-11T15:56:51.987Z,100284.72
2022-12-11T15:59:22.518Z,100290.66
2022-12-11T16:01:50.924Z,100294.09
2022-12-11T16:04:22.281Z,100287.94
2022-12-11T16:06:51.754Z,100297.34
2022-12-11T16:09:21.626Z,100286.78
2022-12-11T16:11:49.882Z,100288.56
2022-12-11T16:14:18.700Z,100294.47
2022-12-11T16:16:46.993Z,100301.59
2022-12-11T16:19:15.689Z,100291.22
2022-12-11T16:21:43.972Z,100290.00
2022-12-11T16:24:12.972Z,100288.81
2022-12-11T16:26:40.922Z,100280.25
2022-12-11T16:29:09.759Z,100260.03
2022-12-11T16:31:37.899Z,100278.28
2022-12-11T16:34:06.919Z,100272.19
2022-12-11T16:36:35.890Z,100279.50
2022-12-11T16:39:06.190Z,100277.59
2022-12-11T16:41:37.249Z,100270.38
2022-12-11T16:44:06.986Z,100272.31
2022-12-11T16:46:35.119Z,100267.38
2022-12-11T16:49:04.726Z,100264.72
2022-12-11T16:51:33.022Z,100262.69
2022-12-11T16:54:02.078Z,100262.03
2022-12-11T16:56:33.412Z,100256.03
2022-12-11T16:59:02.878Z,100245.28
2022-12-11T17:01:31.083Z,100241.97
2022-12-11T17:04:01.512Z,100237.34
2022-12-11T17:06:31.051Z,100231.91
2022-12-11T17:08:58.943Z,100231.59
2022-12-11T17:11:27.301Z,100233.63
2022-12-11T17:14:00.521Z,100231.59
2022-12-11T17:16:30.783Z,100243.63
2022-12-11T17:19:07.959Z,100231.44
2022-12-11T17:21:44.730Z,100232.97
2022-12-11T17:24:16.992Z,100223.06
2022-12-11T17:26:46.146Z,100227.00
2022-12-11T17:29:15.893Z,100219.09
2022-12-11T17:31:43.969Z,100214.91
2022-12-11T17:34:13.361Z,100214.47
2022-12-11T17:36:42.110Z,100203.16
2022-12-11T17:39:13.240Z,100189.38
2022-12-11T17:41:42.772Z,100187.41
2022-12-11T17:44:11.004Z,100193.88
2022-12-11T17:46:40.093Z,100197.22
2022-12-11T17:49:07.948Z,100198.03
2022-12-11T17:51:37.468Z,100195.09
2022-12-11T17:54:05.996Z,100207.13
2022-12-11T17:56:36.437Z,100204.75
2022-12-11T17:59:05.289Z,100230.59
2022-12-11T18:01:36.919Z,100224.03
2022-12-11T18:04:05.065Z,100240.19
2022-12-11T18:06:35.407Z,100250.75
2022-12-11T18:09:18.578Z,100246.72
2022-12-11T18:11:46.894Z,100271.28
2022-12-11T18:14:17.605Z,100289.38
2022-12-11T18:16:46.324Z,100288.91
2022-12-11T18:19:16.205Z,100293.63
2022-12-11T18:21:46.082Z,100282.06
2022-12-11T18:24:15.241Z,100298.94
2022-12-11T18:26:44.127Z,100302.47
2022-12-11T18:29:13.997Z,100289.88
2022-12-11T18:31:43.133Z,100281.38
2022-12-11T18:34:12.342Z,100286.75
2022-12-11T18:36:42.108Z,100274.13
2022-12-11T18:39:10.017Z,100272.03
2022-12-11T18:41:40.661Z,100266.69
2022-12-11T18:44:10.154Z,100268.25
2022-12-11T18:46:39.845Z,100250.66
2022-12-11T18:49:10.363Z,100257.00
2022-12-11T18:51:38.951Z,100264.41
2022-12-11T18:54:10.639Z,100265.25
2022-12-11T18:56:41.972Z,100269.22
2022-12-11T18:59:13.919Z,100280.34
2022-12-11T19:01:45.836Z,100298.75
2022-12-11T19:04:14.000Z,100304.78
2022-12-11T19:06:46.313Z,100291.34
2022-12-11T19:09:15.136Z,100296.16
2022-12-11T19:11:45.027Z,100303.28
2022-12-11T19:14:16.290Z,100300.50
2022-12-11T19:16:46.348Z,100313.00
2022-12-11T19:19:20.751Z,100314.94
2022-12-11T19:21:50.510Z,100311.41
2022-12-11T19:24:22.772Z,100314.03
2022-12-11T19:26:51.704Z,100315.13
2022-12-11T19:29:28.817Z,100320.78
2022-12-11T19:31:57.020Z,100290.72
2022-12-11T19:34:26.613Z,100292.25
2022-12-11T22:54:19.763Z,100236.72
2022-12-11T22:56:48.240Z,100240.22
2022-12-11T22:59:16.328Z,100232.00
2022-12-11T23:01:45.568Z,100224.78
2022-12-11T23:04:13.241Z,100234.31
2022-12-11T23:06:42.468Z,100230.63
2022-12-11T23:09:11.652Z,100224.59
2022-12-11T23:11:40.346Z,100212.38
2022-12-11T23:14:15.082Z,100200.63
2022-12-11T23:16:44.323Z,100201.72
2022-12-11T23:19:13.900Z,100203.50
2022-12-11T23:21:43.195Z,100211.72
2022-12-11T23:24:12.897Z,100199.81
2022-12-11T23:26:42.242Z,100198.25
2022-12-11T23:29:11.557Z,100194.50
2022-12-11T23:31:40.250Z,100200.28
2022-12-11T23:34:09.636Z,100186.47
2022-12-11T23:36:38.780Z,100191.94
2022-12-11T23:39:09.960Z,100178.22
2022-12-11T23:41:38.351Z,100190.63
2022-12-11T23:44:07.667Z,100197.19
2022-12-11T23:46:37.955Z,100196.00
2022-12-11T23:49:07.154Z,100189.78
2022-12-11T23:51:35.288Z,100193.78
2022-12-11T23:54:03.355Z,100186.47
2022-12-11T23:56:37.089Z,100179.00
2022-12-11T23:59:05.344Z,100187.03
